sensor_id;sensor_type;location;lat;lon;timestamp;P1;durP1;ratioP1;P2;durP2;ratioP2
33654;SDS011;19997;51.274;22.506;2023-05-19T00:01:29;5.88;;;3.05;;
33654;SDS011;19997;51.274;22.506;2023-05-19T00:03:57;9.65;;;3.35;;
33654;SDS011;19997;51.274;22.506;2023-05-19T00:06:27;5.33;;;2.97;;
33654;SDS011;19997;51.274;22.506;2023-05-19T00:08:56;5.00;;;3.28;;
33654;SDS011;19997;51.274;22.506;2023-05-19T00:11:25;9.52;;;3.72;;
33654;SDS011;19997;51.274;22.506;2023-05-19T00:13:53;7.97;;;3.60;;
33654;SDS011;19997;51.274;22.506;2023-05-19T00:16:25;8.55;;;3.20;;
33654;SDS011;19997;51.274;22.506;2023-05-19T00:18:53;4.30;;;3.03;;
33654;SDS011;19997;51.274;22.506;2023-05-19T00:21:22;7.15;;;3.63;;
33654;SDS011;19997;51.274;22.506;2023-05-19T00:23:50;7.10;;;3.75;;
33654;SDS011;19997;51.274;22.506;2023-05-19T00:26:17;8.40;;;4.05;;
33654;SDS011;19997;51.274;22.506;2023-05-19T00:28:53;5.93;;;3.40;;
33654;SDS011;19997;51.274;22.506;2023-05-19T00:31:27;6.35;;;3.47;;
33654;SDS011;19997;51.274;22.506;2023-05-19T00:33:55;7.60;;;3.77;;
33654;SDS011;19997;51.274;22.506;2023-05-19T00:36:24;6.50;;;3.58;;
33654;SDS011;19997;51.274;22.506;2023-05-19T00:38:51;5.88;;;4.00;;
33654;SDS011;19997;51.274;22.506;2023-05-19T00:41:18;5.75;;;3.83;;
33654;SDS011;19997;51.274;22.506;2023-05-19T00:43:47;4.40;;;3.40;;
33654;SDS011;19997;51.274;22.506;2023-05-19T00:46:14;9.65;;;3.55;;
33654;SDS011;19997;51.274;22.506;2023-05-19T00:48:43;6.80;;;2.72;;
33654;SDS011;19997;51.274;22.506;2023-05-19T00:51:11;7.82;;;3.75;;
33654;SDS011;19997;51.274;22.506;2023-05-19T00:53:41;6.55;;;3.80;;
33654;SDS011;19997;51.274;22.506;2023-05-19T00:56:12;7.00;;;3.50;;
33654;SDS011;19997;51.274;22.506;2023-05-19T00:58:41;6.70;;;3.08;;
33654;SDS011;19997;51.274;22.506;2023-05-19T01:01:09;6.88;;;3.35;;
33654;SDS011;19997;51.274;22.506;2023-05-19T01:03:38;5.47;;;2.90;;
33654;SDS011;19997;51.274;22.506;2023-05-19T01:06:08;5.20;;;3.25;;
33654;SDS011;19997;51.274;22.506;2023-05-19T01:08:36;5.53;;;3.10;;
33654;SDS011;19997;51.274;22.506;2023-05-19T01:11:04;5.45;;;3.25;;
33654;SDS011;19997;51.274;22.506;2023-05-19T01:13:32;8.40;;;3.65;;
33654;SDS011;19997;51.274;22.506;2023-05-19T01:16:01;6.30;;;3.20;;
33654;SDS011;19997;51.274;22.506;2023-05-19T01:18:37;6.40;;;3.58;;
33654;SDS011;19997;51.274;22.506;2023-05-19T01:21:18;4.70;;;3.33;;
33654;SDS011;19997;51.274;22.506;2023-05-19T01:24:07;5.03;;;2.90;;
33654;SDS011;19997;51.274;22.506;2023-05-19T01:30:10;9.00;;;3.08;;
33654;SDS011;19997;51.274;22.506;2023-05-19T01:32:50;4.78;;;3.38;;
33654;SDS011;19997;51.274;22.506;2023-05-19T01:35:22;4.85;;;3.15;;
33654;SDS011;19997;51.274;22.506;2023-05-19T01:37:51;5.65;;;3.20;;
33654;SDS011;19997;51.274;22.506;2023-05-19T01:40:41;7.82;;;3.88;;
33654;SDS011;19997;51.274;22.506;2023-05-19T01:43:11;8.77;;;3.42;;
33654;SDS011;19997;51.274;22.506;2023-05-19T01:45:43;4.78;;;2.72;;
33654;SDS011;19997;51.274;22.506;2023-05-19T01:48:11;5.28;;;3.42;;
33654;SDS011;19997;51.274;22.506;2023-05-19T01:50:39;5.78;;;3.25;;
33654;SDS011;19997;51.274;22.506;2023-05-19T01:53:08;7.88;;;2.95;;
33654;SDS011;19997;51.274;22.506;2023-05-19T01:55:39;5.78;;;2.83;;
33654;SDS011;19997;51.274;22.506;2023-05-19T01:58:09;6.68;;;3.10;;
33654;SDS011;19997;51.274;22.506;2023-05-19T02:00:50;5.30;;;2.97;;
33654;SDS011;19997;51.274;22.506;2023-05-19T02:03:31;6.78;;;3.17;;
33654;SDS011;19997;51.274;22.506;2023-05-19T02:06:12;6.65;;;3.45;;
33654;SDS011;19997;51.274;22.506;2023-05-19T02:08:50;5.57;;;3.40;;
33654;SDS011;19997;51.274;22.506;2023-05-19T02:11:25;4.30;;;2.95;;
33654;SDS011;19997;51.274;22.506;2023-05-19T02:14:00;8.25;;;2.78;;
33654;SDS011;19997;51.274;22.506;2023-05-19T02:16:34;6.13;;;3.60;;
33654;SDS011;19997;51.274;22.506;2023-05-19T02:19:15;7.95;;;3.55;;
33654;SDS011;19997;51.274;22.506;2023-05-19T02:21:46;4.97;;;3.28;;
33654;SDS011;19997;51.274;22.506;2023-05-19T02:24:14;4.45;;;3.20;;
33654;SDS011;19997;51.274;22.506;2023-05-19T02:26:44;5.55;;;3.35;;
33654;SDS011;19997;51.274;22.506;2023-05-19T02:29:13;4.30;;;3.55;;
33654;SDS011;19997;51.274;22.506;2023-05-19T02:31:42;5.05;;;3.30;;
33654;SDS011;19997;51.274;22.506;2023-05-19T02:34:11;6.53;;;3.05;;
33654;SDS011;19997;51.274;22.506;2023-05-19T02:36:39;8.25;;;3.22;;
33654;SDS011;19997;51.274;22.506;2023-05-19T02:39:08;6.22;;;3.17;;
33654;SDS011;19997;51.274;22.506;2023-05-19T02:41:36;8.50;;;3.53;;
33654;SDS011;19997;51.274;22.506;2023-05-19T02:44:04;6.82;;;3.50;;
33654;SDS011;19997;51.274;22.506;2023-05-19T02:46:33;7.07;;;3.20;;
33654;SDS011;19997;51.274;22.506;2023-05-19T02:49:04;6.88;;;3.58;;
33654;SDS011;19997;51.274;22.506;2023-05-19T02:51:35;5.22;;;3.67;;
33654;SDS011;19997;51.274;22.506;2023-05-19T02:54:03;5.03;;;3.33;;
33654;SDS011;19997;51.274;22.506;2023-05-19T02:56:30;8.20;;;3.20;;
33654;SDS011;19997;51.274;22.506;2023-05-19T02:58:57;10.02;;;3.65;;
33654;SDS011;19997;51.274;22.506;2023-05-19T03:01:25;5.00;;;3.30;;
33654;SDS011;19997;51.274;22.506;2023-05-19T03:03:53;7.05;;;3.08;;
33654;SDS011;19997;51.274;22.506;2023-05-19T03:06:34;6.50;;;3.53;;
33654;SDS011;19997;51.274;22.506;2023-05-19T03:09:03;5.28;;;3.20;;
33654;SDS011;19997;51.274;22.506;2023-05-19T03:11:30;5.63;;;3.25;;
33654;SDS011;19997;51.274;22.506;2023-05-19T03:13:57;3.25;;;2.95;;
33654;SDS011;19997;51.274;22.506;2023-05-19T03:16:24;7.40;;;3.20;;
33654;SDS011;19997;51.274;22.506;2023-05-19T03:18:52;9.77;;;3.10;;
33654;SDS011;19997;51.274;22.506;2023-05-19T03:21:19;4.80;;;2.85;;
33654;SDS011;19997;51.274;22.506;2023-05-19T03:23:48;4.97;;;3.20;;
33654;SDS011;19997;51.274;22.506;2023-05-19T03:26:15;7.70;;;3.20;;
33654;SDS011;19997;51.274;22.506;2023-05-19T03:28:42;4.45;;;2.35;;
33654;SDS011;19997;51.274;22.506;2023-05-19T03:31:16;7.28;;;3.42;;
33654;SDS011;19997;51.274;22.506;2023-05-19T03:33:43;6.65;;;2.88;;
33654;SDS011;19997;51.274;22.506;2023-05-19T03:36:10;7.97;;;3.20;;
33654;SDS011;19997;51.274;22.506;2023-05-19T03:38:38;5.38;;;2.80;;
33654;SDS011;19997;51.274;22.506;2023-05-19T03:41:06;6.75;;;3.10;;
33654;SDS011;19997;51.274;22.506;2023-05-19T03:43:34;10.15;;;3.13;;
33654;SDS011;19997;51.274;22.506;2023-05-19T03:46:03;8.57;;;3.40;;
33654;SDS011;19997;51.274;22.506;2023-05-19T03:49:09;3.88;;;2.80;;
33654;SDS011;19997;51.274;22.506;2023-05-19T03:51:56;20.58;;;3.65;;
33654;SDS011;19997;51.274;22.506;2023-05-19T03:54:32;5.07;;;3.58;;
33654;SDS011;19997;51.274;22.506;2023-05-19T03:57:01;10.43;;;2.95;;
33654;SDS011;19997;51.274;22.506;2023-05-19T03:59:28;7.47;;;4.10;;
33654;SDS011;19997;51.274;22.506;2023-05-19T04:01:56;6.22;;;3.42;;
33654;SDS011;19997;51.274;22.506;2023-05-19T04:04:25;8.70;;;3.95;;
33654;SDS011;19997;51.274;22.506;2023-05-19T04:06:52;6.15;;;2.80;;
33654;SDS011;19997;51.274;22.506;2023-05-19T04:09:20;8.52;;;3.45;;
33654;SDS011;19997;51.274;22.506;2023-05-19T04:11:48;12.38;;;4.05;;
33654;SDS011;19997;51.274;22.506;2023-05-19T04:14:17;6.93;;;3.97;;
33654;SDS011;19997;51.274;22.506;2023-05-19T04:16:45;9.57;;;3.90;;
33654;SDS011;19997;51.274;22.506;2023-05-19T04:19:12;5.57;;;3.50;;
33654;SDS011;19997;51.274;22.506;2023-05-19T04:21:40;7.95;;;3.83;;
33654;SDS011;19997;51.274;22.506;2023-05-19T04:24:07;9.18;;;4.43;;
33654;SDS011;19997;51.274;22.506;2023-05-19T04:26:34;6.93;;;3.40;;
33654;SDS011;19997;51.274;22.506;2023-05-19T04:29:03;6.65;;;4.18;;
33654;SDS011;19997;51.274;22.506;2023-05-19T04:31:32;5.57;;;4.05;;
33654;SDS011;19997;51.274;22.506;2023-05-19T04:34:01;7.82;;;4.50;;
33654;SDS011;19997;51.274;22.506;2023-05-19T04:36:29;9.18;;;4.13;;
33654;SDS011;19997;51.274;22.506;2023-05-19T04:38:58;7.07;;;4.80;;
33654;SDS011;19997;51.274;22.506;2023-05-19T04:41:29;8.68;;;4.53;;
33654;SDS011;19997;51.274;22.506;2023-05-19T04:43:58;11.77;;;5.25;;
33654;SDS011;19997;51.274;22.506;2023-05-19T04:46:25;11.23;;;4.05;;
33654;SDS011;19997;51.274;22.506;2023-05-19T04:48:55;10.30;;;4.88;;
33654;SDS011;19997;51.274;22.506;2023-05-19T04:51:25;11.77;;;4.20;;
33654;SDS011;19997;51.274;22.506;2023-05-19T04:53:56;7.95;;;5.40;;
33654;SDS011;19997;51.274;22.506;2023-05-19T04:56:24;10.57;;;5.70;;
33654;SDS011;19997;51.274;22.506;2023-05-19T04:58:52;10.45;;;6.03;;
33654;SDS011;19997;51.274;22.506;2023-05-19T05:01:19;9.57;;;4.97;;
33654;SDS011;19997;51.274;22.506;2023-05-19T05:03:50;7.55;;;4.55;;
33654;SDS011;19997;51.274;22.506;2023-05-19T05:06:20;14.20;;;5.70;;
33654;SDS011;19997;51.274;22.506;2023-05-19T05:08:48;10.93;;;5.40;;
33654;SDS011;19997;51.274;22.506;2023-05-19T05:11:15;8.07;;;5.15;;
33654;SDS011;19997;51.274;22.506;2023-05-19T05:13:43;11.25;;;5.55;;
33654;SDS011;19997;51.274;22.506;2023-05-19T05:16:12;9.13;;;5.22;;
33654;SDS011;19997;51.274;22.506;2023-05-19T05:18:40;15.27;;;6.07;;
33654;SDS011;19997;51.274;22.506;2023-05-19T05:21:08;11.27;;;5.20;;
33654;SDS011;19997;51.274;22.506;2023-05-19T05:23:37;11.23;;;5.97;;
33654;SDS011;19997;51.274;22.506;2023-05-19T05:26:08;8.73;;;6.17;;
33654;SDS011;19997;51.274;22.506;2023-05-19T05:28:43;9.07;;;5.97;;
33654;SDS011;19997;51.274;22.506;2023-05-19T05:31:10;9.35;;;7.20;;
33654;SDS011;19997;51.274;22.506;2023-05-19T05:33:38;7.93;;;5.65;;
33654;SDS011;19997;51.274;22.506;2023-05-19T05:36:06;11.88;;;5.70;;
33654;SDS011;19997;51.274;22.506;2023-05-19T05:38:34;11.77;;;5.95;;
33654;SDS011;19997;51.274;22.506;2023-05-19T05:41:03;10.05;;;5.50;;
33654;SDS011;19997;51.274;22.506;2023-05-19T05:43:31;10.35;;;5.10;;
33654;SDS011;19997;51.274;22.506;2023-05-19T05:46:01;7.88;;;4.80;;
33654;SDS011;19997;51.274;22.506;2023-05-19T05:48:28;8.82;;;5.57;;
33654;SDS011;19997;51.274;22.506;2023-05-19T05:50:56;9.07;;;5.65;;
33654;SDS011;19997;51.274;22.506;2023-05-19T05:53:29;7.68;;;5.07;;
33654;SDS011;19997;51.274;22.506;2023-05-19T05:56:00;10.27;;;5.65;;
33654;SDS011;19997;51.274;22.506;2023-05-19T05:58:38;6.68;;;4.63;;
33654;SDS011;19997;51.274;22.506;2023-05-19T06:01:05;6.68;;;4.60;;
33654;SDS011;19997;51.274;22.506;2023-05-19T06:03:35;6.55;;;4.28;;
33654;SDS011;19997;51.274;22.506;2023-05-19T06:06:06;14.27;;;4.60;;
33654;SDS011;19997;51.274;22.506;2023-05-19T06:08:33;12.65;;;4.70;;
33654;SDS011;19997;51.274;22.506;2023-05-19T06:11:01;6.30;;;4.85;;
33654;SDS011;19997;51.274;22.506;2023-05-19T06:13:32;5.90;;;4.60;;
33654;SDS011;19997;51.274;22.506;2023-05-19T06:16:01;6.13;;;4.03;;
33654;SDS011;19997;51.274;22.506;2023-05-19T06:18:32;8.07;;;4.28;;
33654;SDS011;19997;51.274;22.506;2023-05-19T06:20:59;5.03;;;3.92;;
33654;SDS011;19997;51.274;22.506;2023-05-19T06:23:28;5.22;;;4.10;;
33654;SDS011;19997;51.274;22.506;2023-05-19T06:25:56;4.53;;;3.60;;
33654;SDS011;19997;51.274;22.506;2023-05-19T06:28:23;7.32;;;4.15;;
33654;SDS011;19997;51.274;22.506;2023-05-19T06:30:51;5.72;;;4.40;;
33654;SDS011;19997;51.274;22.506;2023-05-19T06:33:41;8.00;;;3.90;;
33654;SDS011;19997;51.274;22.506;2023-05-19T06:36:08;10.15;;;4.35;;
33654;SDS011;19997;51.274;22.506;2023-05-19T06:38:37;5.37;;;4.17;;
33654;SDS011;19997;51.274;22.506;2023-05-19T06:41:05;5.55;;;4.20;;
33654;SDS011;19997;51.274;22.506;2023-05-19T06:43:32;7.28;;;4.30;;
33654;SDS011;19997;51.274;22.506;2023-05-19T06:46:03;6.00;;;4.15;;
33654;SDS011;19997;51.274;22.506;2023-05-19T06:48:32;7.68;;;4.40;;
33654;SDS011;19997;51.274;22.506;2023-05-19T06:51:00;6.60;;;4.45;;
33654;SDS011;19997;51.274;22.506;2023-05-19T06:53:29;7.67;;;4.30;;
33654;SDS011;19997;51.274;22.506;2023-05-19T06:55:56;8.82;;;4.70;;
33654;SDS011;19997;51.274;22.506;2023-05-19T06:58:25;9.57;;;4.40;;
33654;SDS011;19997;51.274;22.506;2023-05-19T07:00:52;6.68;;;3.40;;
33654;SDS011;19997;51.274;22.506;2023-05-19T07:03:20;4.85;;;3.75;;
33654;SDS011;19997;51.274;22.506;2023-05-19T07:05:47;6.72;;;3.13;;
33654;SDS011;19997;51.274;22.506;2023-05-19T07:08:16;5.32;;;3.85;;
33654;SDS011;19997;51.274;22.506;2023-05-19T07:10:43;4.18;;;3.10;;
33654;SDS011;19997;51.274;22.506;2023-05-19T07:13:13;5.13;;;3.38;;
33654;SDS011;19997;51.274;22.506;2023-05-19T07:15:40;6.78;;;3.65;;
33654;SDS011;19997;51.274;22.506;2023-05-19T07:18:07;7.95;;;4.38;;
33654;SDS011;19997;51.274;22.506;2023-05-19T07:20:34;6.13;;;3.00;;
33654;SDS011;19997;51.274;22.506;2023-05-19T07:23:02;7.55;;;4.60;;
33654;SDS011;19997;51.274;22.506;2023-05-19T07:25:31;5.15;;;3.30;;
33654;SDS011;19997;51.274;22.506;2023-05-19T07:27:58;6.00;;;3.75;;
33654;SDS011;19997;51.274;22.506;2023-05-19T07:32:53;6.88;;;3.28;;
33654;SDS011;19997;51.274;22.506;2023-05-19T07:35:20;6.57;;;3.15;;
33654;SDS011;19997;51.274;22.506;2023-05-19T07:37:47;7.00;;;3.70;;
33654;SDS011;19997;51.274;22.506;2023-05-19T07:40:15;7.50;;;3.63;;
33654;SDS011;19997;51.274;22.506;2023-05-19T07:42:43;5.65;;;3.20;;
33654;SDS011;19997;51.274;22.506;2023-05-19T07:45:11;7.53;;;3.17;;
33654;SDS011;19997;51.274;22.506;2023-05-19T07:47:38;4.20;;;2.60;;
33654;SDS011;19997;51.274;22.506;2023-05-19T07:50:05;6.35;;;2.70;;
33654;SDS011;19997;51.274;22.506;2023-05-19T07:52:33;6.32;;;3.22;;
33654;SDS011;19997;51.274;22.506;2023-05-19T07:55:00;5.32;;;3.20;;
33654;SDS011;19997;51.274;22.506;2023-05-19T07:57:27;6.68;;;3.70;;
33654;SDS011;19997;51.274;22.506;2023-05-19T07:59:56;4.72;;;3.40;;
33654;SDS011;19997;51.274;22.506;2023-05-19T08:02:23;9.38;;;3.60;;
33654;SDS011;19997;51.274;22.506;2023-05-19T08:04:50;10.75;;;5.22;;
33654;SDS011;19997;51.274;22.506;2023-05-19T08:07:18;8.02;;;3.83;;
33654;SDS011;19997;51.274;22.506;2023-05-19T08:09:45;7.13;;;3.95;;
33654;SDS011;19997;51.274;22.506;2023-05-19T08:12:12;6.57;;;4.10;;
33654;SDS011;19997;51.274;22.506;2023-05-19T08:14:39;9.60;;;4.05;;
33654;SDS011;19997;51.274;22.506;2023-05-19T08:17:08;12.23;;;4.32;;
33654;SDS011;19997;51.274;22.506;2023-05-19T08:19:35;9.52;;;4.25;;
33654;SDS011;19997;51.274;22.506;2023-05-19T08:22:02;8.65;;;3.70;;
33654;SDS011;19997;51.274;22.506;2023-05-19T08:24:29;10.02;;;3.78;;
33654;SDS011;19997;51.274;22.506;2023-05-19T08:26:58;10.40;;;4.07;;
33654;SDS011;19997;51.274;22.506;2023-05-19T08:29:25;11.93;;;4.10;;
33654;SDS011;19997;51.274;22.506;2023-05-19T08:31:52;8.52;;;3.83;;
33654;SDS011;19997;51.274;22.506;2023-05-19T08:34:20;8.52;;;3.85;;
33654;SDS011;19997;51.274;22.506;2023-05-19T08:36:47;7.18;;;3.90;;
33654;SDS011;19997;51.274;22.506;2023-05-19T08:39:14;6.72;;;3.78;;
33654;SDS011;19997;51.274;22.506;2023-05-19T08:41:43;5.95;;;3.55;;
33654;SDS011;19997;51.274;22.506;2023-05-19T08:44:10;10.95;;;4.28;;
33654;SDS011;19997;51.274;22.506;2023-05-19T08:46:37;8.85;;;3.80;;
33654;SDS011;19997;51.274;22.506;2023-05-19T08:49:07;12.55;;;4.07;;
33654;SDS011;19997;51.274;22.506;2023-05-19T08:51:40;8.05;;;3.95;;
33654;SDS011;19997;51.274;22.506;2023-05-19T08:54:15;10.80;;;4.30;;
33654;SDS011;19997;51.274;22.506;2023-05-19T08:56:44;9.77;;;4.53;;
33654;SDS011;19997;51.274;22.506;2023-05-19T08:59:12;11.68;;;4.47;;
33654;SDS011;19997;51.274;22.506;2023-05-19T09:01:40;7.45;;;3.78;;
33654;SDS011;19997;51.274;22.506;2023-05-19T09:04:10;9.25;;;6.22;;
33654;SDS011;19997;51.274;22.506;2023-05-19T09:06:39;5.97;;;4.13;;
33654;SDS011;19997;51.274;22.506;2023-05-19T09:09:09;7.60;;;4.55;;
33654;SDS011;19997;51.274;22.506;2023-05-19T09:11:36;5.43;;;3.88;;
33654;SDS011;19997;51.274;22.506;2023-05-19T09:14:03;10.88;;;3.42;;
33654;SDS011;19997;51.274;22.506;2023-05-19T09:16:30;12.50;;;4.60;;
33654;SDS011;19997;51.274;22.506;2023-05-19T09:18:58;14.32;;;5.10;;
33654;SDS011;19997;51.274;22.506;2023-05-19T09:21:26;10.88;;;6.20;;
33654;SDS011;19997;51.274;22.506;2023-05-19T09:23:56;9.18;;;4.85;;
33654;SDS011;19997;51.274;22.506;2023-05-19T09:26:24;9.80;;;5.00;;
33654;SDS011;19997;51.274;22.506;2023-05-19T09:29:09;7.78;;;4.82;;
33654;SDS011;19997;51.274;22.506;2023-05-19T09:31:37;9.70;;;5.07;;
33654;SDS011;19997;51.274;22.506;2023-05-19T09:34:10;9.63;;;4.05;;
33654;SDS011;19997;51.274;22.506;2023-05-19T09:36:38;10.07;;;6.05;;
33654;SDS011;19997;51.274;22.506;2023-05-19T09:39:12;11.75;;;4.57;;
33654;SDS011;19997;51.274;22.506;2023-05-19T09:41:40;13.02;;;5.00;;
33654;SDS011;19997;51.274;22.506;2023-05-19T09:44:11;8.43;;;4.78;;
33654;SDS011;19997;51.274;22.506;2023-05-19T09:46:46;14.15;;;5.05;;
33654;SDS011;19997;51.274;22.506;2023-05-19T09:49:17;7.25;;;4.43;;
33654;SDS011;19997;51.274;22.506;2023-05-19T09:51:47;8.40;;;5.20;;
33654;SDS011;19997;51.274;22.506;2023-05-19T09:54:17;11.02;;;4.97;;
33654;SDS011;19997;51.274;22.506;2023-05-19T09:56:50;8.35;;;4.47;;
33654;SDS011;19997;51.274;22.506;2023-05-19T09:59:18;20.60;;;5.63;;
33654;SDS011;19997;51.274;22.506;2023-05-19T10:01:49;10.35;;;4.82;;
33654;SDS011;19997;51.274;22.506;2023-05-19T10:04:17;12.07;;;4.95;;
33654;SDS011;19997;51.274;22.506;2023-05-19T10:06:46;10.68;;;4.93;;
33654;SDS011;19997;51.274;22.506;2023-05-19T10:09:19;11.75;;;5.80;;
33654;SDS011;19997;51.274;22.506;2023-05-19T10:11:50;12.55;;;5.15;;
33654;SDS011;19997;51.274;22.506;2023-05-19T10:14:18;17.25;;;5.63;;
33654;SDS011;19997;51.274;22.506;2023-05-19T10:16:48;13.23;;;4.97;;
33654;SDS011;19997;51.274;22.506;2023-05-19T10:19:16;7.50;;;5.60;;
33654;SDS011;19997;51.274;22.506;2023-05-19T10:21:46;11.02;;;4.93;;
33654;SDS011;19997;51.274;22.506;2023-05-19T10:24:14;12.32;;;5.20;;
33654;SDS011;19997;51.274;22.506;2023-05-19T10:26:44;9.13;;;5.55;;
33654;SDS011;19997;51.274;22.506;2023-05-19T10:29:16;14.63;;;4.75;;
33654;SDS011;19997;51.274;22.506;2023-05-19T10:31:46;11.07;;;5.60;;
33654;SDS011;19997;51.274;22.506;2023-05-19T10:34:22;8.02;;;4.82;;
33654;SDS011;19997;51.274;22.506;2023-05-19T10:39:59;8.55;;;5.55;;
33654;SDS011;19997;51.274;22.506;2023-05-19T10:42:37;11.27;;;5.43;;
33654;SDS011;19997;51.274;22.506;2023-05-19T10:45:12;10.73;;;4.68;;
33654;SDS011;19997;51.274;22.506;2023-05-19T10:47:43;10.55;;;4.93;;
33654;SDS011;19997;51.274;22.506;2023-05-19T10:50:10;15.35;;;5.53;;
33654;SDS011;19997;51.274;22.506;2023-05-19T10:52:38;15.52;;;5.72;;
33654;SDS011;19997;51.274;22.506;2023-05-19T10:55:06;12.13;;;5.25;;
33654;SDS011;19997;51.274;22.506;2023-05-19T10:57:34;10.43;;;6.20;;
33654;SDS011;19997;51.274;22.506;2023-05-19T11:00:03;12.25;;;5.18;;
33654;SDS011;19997;51.274;22.506;2023-05-19T11:02:52;10.48;;;6.32;;
33654;SDS011;19997;51.274;22.506;2023-05-19T11:05:26;11.43;;;7.15;;
33654;SDS011;19997;51.274;22.506;2023-05-19T11:07:55;18.65;;;5.97;;
33654;SDS011;19997;51.274;22.506;2023-05-19T11:10:26;18.42;;;7.07;;
33654;SDS011;19997;51.274;22.506;2023-05-19T11:12:53;12.57;;;6.45;;
33654;SDS011;19997;51.274;22.506;2023-05-19T11:15:25;18.73;;;7.95;;
33654;SDS011;19997;51.274;22.506;2023-05-19T11:17:53;14.27;;;7.38;;
33654;SDS011;19997;51.274;22.506;2023-05-19T11:20:21;11.52;;;7.68;;
33654;SDS011;19997;51.274;22.506;2023-05-19T11:25:45;12.85;;;6.55;;
33654;SDS011;19997;51.274;22.506;2023-05-19T11:28:14;14.02;;;6.90;;
33654;SDS011;19997;51.274;22.506;2023-05-19T11:30:44;13.00;;;6.47;;
33654;SDS011;19997;51.274;22.506;2023-05-19T11:33:14;17.77;;;6.90;;
33654;SDS011;19997;51.274;22.506;2023-05-19T11:35:43;12.65;;;6.68;;
33654;SDS011;19997;51.274;22.506;2023-05-19T11:38:13;8.15;;;5.78;;
33654;SDS011;19997;51.274;22.506;2023-05-19T11:40:41;13.02;;;6.20;;
33654;SDS011;19997;51.274;22.506;2023-05-19T11:43:09;13.38;;;7.03;;
33654;SDS011;19997;51.274;22.506;2023-05-19T11:45:36;11.80;;;6.13;;
33654;SDS011;19997;51.274;22.506;2023-05-19T11:48:06;18.88;;;7.38;;
33654;SDS011;19997;51.274;22.506;2023-05-19T11:50:36;11.20;;;5.70;;
33654;SDS011;19997;51.274;22.506;2023-05-19T11:53:06;13.67;;;6.67;;
33654;SDS011;19997;51.274;22.506;2023-05-19T11:55:40;16.80;;;6.35;;
33654;SDS011;19997;51.274;22.506;2023-05-19T11:58:08;18.02;;;6.93;;
33654;SDS011;19997;51.274;22.506;2023-05-19T12:00:37;14.57;;;7.07;;
33654;SDS011;19997;51.274;22.506;2023-05-19T12:03:06;19.53;;;6.23;;
33654;SDS011;19997;51.274;22.506;2023-05-19T12:05:35;12.90;;;5.75;;
33654;SDS011;19997;51.274;22.506;2023-05-19T12:08:03;17.42;;;6.10;;
33654;SDS011;19997;51.274;22.506;2023-05-19T12:10:30;11.40;;;5.53;;
33654;SDS011;19997;51.274;22.506;2023-05-19T12:12:59;15.50;;;6.30;;
33654;SDS011;19997;51.274;22.506;2023-05-19T12:15:27;11.70;;;5.25;;
33654;SDS011;19997;51.274;22.506;2023-05-19T12:17:55;15.65;;;5.18;;
33654;SDS011;19997;51.274;22.506;2023-05-19T12:20:24;14.93;;;6.15;;
33654;SDS011;19997;51.274;22.506;2023-05-19T12:22:53;14.05;;;5.55;;
33654;SDS011;19997;51.274;22.506;2023-05-19T12:25:21;12.73;;;4.93;;
33654;SDS011;19997;51.274;22.506;2023-05-19T12:27:49;13.13;;;6.32;;
33654;SDS011;19997;51.274;22.506;2023-05-19T12:32:52;7.65;;;4.65;;
33654;SDS011;19997;51.274;22.506;2023-05-19T12:35:19;13.60;;;6.35;;
33654;SDS011;19997;51.274;22.506;2023-05-19T12:37:50;16.60;;;5.57;;
33654;SDS011;19997;51.274;22.506;2023-05-19T12:40:17;14.35;;;5.63;;
33654;SDS011;19997;51.274;22.506;2023-05-19T12:42:44;17.60;;;5.80;;
33654;SDS011;19997;51.274;22.506;2023-05-19T12:45:12;16.40;;;6.35;;
33654;SDS011;19997;51.274;22.506;2023-05-19T12:47:39;14.75;;;5.50;;
33654;SDS011;19997;51.274;22.506;2023-05-19T12:50:07;13.73;;;5.75;;
33654;SDS011;19997;51.274;22.506;2023-05-19T12:52:40;16.48;;;5.53;;
33654;SDS011;19997;51.274;22.506;2023-05-19T12:55:10;21.40;;;6.20;;
33654;SDS011;19997;51.274;22.506;2023-05-19T12:57:47;13.00;;;5.57;;
33654;SDS011;19997;51.274;22.506;2023-05-19T13:00:16;16.60;;;5.70;;
33654;SDS011;19997;51.274;22.506;2023-05-19T13:02:54;8.93;;;5.03;;
33654;SDS011;19997;51.274;22.506;2023-05-19T13:07:53;17.65;;;5.95;;
33654;SDS011;19997;51.274;22.506;2023-05-19T13:10:22;13.38;;;5.43;;
33654;SDS011;19997;51.274;22.506;2023-05-19T13:12:51;24.17;;;7.60;;
33654;SDS011;19997;51.274;22.506;2023-05-19T13:15:20;12.43;;;5.97;;
33654;SDS011;19997;51.274;22.506;2023-05-19T13:20:17;21.15;;;7.28;;
33654;SDS011;19997;51.274;22.506;2023-05-19T13:22:44;15.40;;;6.60;;
33654;SDS011;19997;51.274;22.506;2023-05-19T13:25:11;17.33;;;7.43;;
33654;SDS011;19997;51.274;22.506;2023-05-19T13:27:39;18.08;;;6.60;;
33654;SDS011;19997;51.274;22.506;2023-05-19T13:30:07;16.88;;;7.00;;
33654;SDS011;19997;51.274;22.506;2023-05-19T13:32:34;22.30;;;8.18;;
33654;SDS011;19997;51.274;22.506;2023-05-19T13:35:01;13.95;;;7.20;;
33654;SDS011;19997;51.274;22.506;2023-05-19T13:37:29;21.38;;;7.68;;
33654;SDS011;19997;51.274;22.506;2023-05-19T13:39:56;21.75;;;7.97;;
33654;SDS011;19997;51.274;22.506;2023-05-19T13:42:23;20.02;;;8.15;;
33654;SDS011;19997;51.274;22.506;2023-05-19T13:44:54;19.00;;;7.68;;
33654;SDS011;19997;51.274;22.506;2023-05-19T13:47:21;19.27;;;7.95;;
33654;SDS011;19997;51.274;22.506;2023-05-19T13:49:49;20.88;;;8.10;;
33654;SDS011;19997;51.274;22.506;2023-05-19T13:52:16;18.33;;;8.30;;
33654;SDS011;19997;51.274;22.506;2023-05-19T13:54:43;27.85;;;8.30;;
33654;SDS011;19997;51.274;22.506;2023-05-19T13:57:11;21.55;;;7.75;;
33654;SDS011;19997;51.274;22.506;2023-05-19T13:59:38;19.63;;;7.57;;
33654;SDS011;19997;51.274;22.506;2023-05-19T14:02:07;17.35;;;7.47;;
33654;SDS011;19997;51.274;22.506;2023-05-19T14:04:35;22.40;;;8.75;;
33654;SDS011;19997;51.274;22.506;2023-05-19T14:07:03;23.27;;;8.43;;
33654;SDS011;19997;51.274;22.506;2023-05-19T14:09:30;28.48;;;7.88;;
33654;SDS011;19997;51.274;22.506;2023-05-19T14:11:58;22.08;;;8.07;;
33654;SDS011;19997;51.274;22.506;2023-05-19T14:14:25;15.13;;;7.28;;
33654;SDS011;19997;51.274;22.506;2023-05-19T14:16:53;16.40;;;7.38;;
33654;SDS011;19997;51.274;22.506;2023-05-19T14:19:21;17.67;;;7.40;;
33654;SDS011;19997;51.274;22.506;2023-05-19T14:21:54;18.52;;;7.75;;
33654;SDS011;19997;51.274;22.506;2023-05-19T14:24:21;15.00;;;7.70;;
33654;SDS011;19997;51.274;22.506;2023-05-19T14:26:48;11.95;;;7.38;;
33654;SDS011;19997;51.274;22.506;2023-05-19T14:29:16;33.95;;;7.95;;
33654;SDS011;19997;51.274;22.506;2023-05-19T14:31:43;22.83;;;8.63;;
33654;SDS011;19997;51.274;22.506;2023-05-19T14:34:12;15.32;;;7.20;;
33654;SDS011;19997;51.274;22.506;2023-05-19T14:36:43;15.07;;;6.90;;
33654;SDS011;19997;51.274;22.506;2023-05-19T14:39:10;13.90;;;6.38;;
33654;SDS011;19997;51.274;22.506;2023-05-19T14:41:37;14.32;;;6.53;;
33654;SDS011;19997;51.274;22.506;2023-05-19T14:44:04;17.92;;;7.10;;
33654;SDS011;19997;51.274;22.506;2023-05-19T14:46:31;13.77;;;6.32;;
33654;SDS011;19997;51.274;22.506;2023-05-19T14:48:58;16.50;;;6.10;;
33654;SDS011;19997;51.274;22.506;2023-05-19T14:51:25;12.57;;;6.78;;
33654;SDS011;19997;51.274;22.506;2023-05-19T14:53:54;16.17;;;7.07;;
33654;SDS011;19997;51.274;22.506;2023-05-19T14:56:21;14.07;;;7.07;;
33654;SDS011;19997;51.274;22.506;2023-05-19T14:58:48;16.60;;;8.15;;
33654;SDS011;19997;51.274;22.506;2023-05-19T15:01:15;17.95;;;7.30;;